Time;durP1;ratioP1;P1;durP2;ratioP2;P2;SDS_P1;SDS_P2;PMS_P1;PMS_P2;Temp;Humidity;BMP_temperature;BMP_pressure;BME280_temperature;BME280_humidity;BME280_pressure;Samples;Min_cycle;Max_cycle;Signal;HPM_P1;HPM_P2
2022/07/22 00:02:13;;;;;;;8.80;1.00;;;16.50;99.90;;;;;;5072517;28;20094;-77
2022/07/22 00:04:40;;;;;;;4.78;0.80;;;16.40;99.90;;;;;;5074283;28;20038;-78
2022/07/22 00:07:07;;;;;;;3.67;0.60;;;16.40;99.90;;;;;;5073777;28;20025;-76
2022/07/22 00:09:35;;;;;;;4.90;0.60;;;16.50;99.90;;;;;;5072511;28;20028;-78
2022/07/22 00:12:02;;;;;;;5.05;0.85;;;16.50;99.90;;;;;;5073612;28;20028;-77
2022/07/22 00:14:29;;;;;;;4.88;0.90;;;16.50;99.90;;;;;;5072567;28;20094;-78
2022/07/22 00:16:57;;;;;;;4.35;0.70;;;16.40;99.90;;;;;;5072282;28;20025;-76
2022/07/22 00:19:24;;;;;;;5.40;0.80;;;16.40;99.90;;;;;;5073979;28;20043;-76
2022/07/22 00:21:52;;;;;;;5.20;0.80;;;16.50;99.90;;;;;;5072207;28;20029;-75
2022/07/22 00:24:20;;;;;;;7.20;1.20;;;16.60;99.90;;;;;;5071922;28;20121;-76
2022/07/22 00:26:47;;;;;;;5.85;0.82;;;16.60;99.90;;;;;;5072201;28;20028;-77
2022/07/22 00:29:18;;;;;;;8.60;0.90;;;16.70;99.90;;;;;;5072296;28;20112;-75
2022/07/22 00:31:45;;;;;;;5.63;0.60;;;16.80;99.90;;;;;;5074745;28;20032;-75
2022/07/22 00:34:12;;;;;;;4.95;0.70;;;17.00;99.90;;;;;;5076436;28;20159;-75
2022/07/22 00:36:40;;;;;;;5.65;1.00;;;17.10;99.90;;;;;;5077240;28;20077;-76
2022/07/22 00:39:08;;;;;;;3.75;0.60;;;17.20;99.90;;;;;;5076238;28;20029;-75
2022/07/22 00:41:35;;;;;;;7.97;1.45;;;17.10;99.90;;;;;;5077412;28;20380;-75
2022/07/22 00:44:06;;;;;;;5.95;0.90;;;17.10;99.90;;;;;;5077175;28;20025;-75
2022/07/22 00:46:35;;;;;;;6.18;0.80;;;17.00;99.90;;;;;;5077201;28;20020;-75
2022/07/22 00:49:05;;;;;;;6.18;1.05;;;17.10;99.90;;;;;;5076836;28;20535;-76
2022/07/22 00:51:32;;;;;;;6.70;1.10;;;17.10;99.90;;;;;;5077022;28;20032;-76
2022/07/22 00:54:02;;;;;;;5.72;0.70;;;17.20;99.90;;;;;;5077363;28;20039;-76
2022/07/22 00:56:30;;;;;;;6.65;0.80;;;17.30;99.90;;;;;;5077297;28;20078;-76
2022/07/22 00:59:01;;;;;;;7.78;1.02;;;17.40;99.90;;;;;;5077116;28;20055;-76
2022/07/22 01:01:28;;;;;;;3.90;0.63;;;17.50;99.90;;;;;;5075876;28;20115;-76
2022/07/22 01:03:56;;;;;;;5.50;1.00;;;17.50;99.90;;;;;;5075607;28;20081;-76
2022/07/22 01:06:23;;;;;;;6.63;1.00;;;17.60;99.90;;;;;;5075657;28;20028;-76
2022/07/22 01:08:51;;;;;;;5.30;0.73;;;17.60;99.90;;;;;;5076943;28;20048;-76
2022/07/22 01:11:20;;;;;;;4.50;0.80;;;17.70;99.90;;;;;;5075609;28;20389;-75
2022/07/22 01:13:48;;;;;;;5.68;0.65;;;17.70;99.90;;;;;;5076708;28;20469;-75
2022/07/22 01:16:17;;;;;;;2.83;0.90;;;17.60;99.90;;;;;;5076728;28;20028;-75
2022/07/22 01:18:45;;;;;;;9.48;1.35;;;17.70;99.90;;;;;;5076642;28;20023;-76
2022/07/22 01:21:14;;;;;;;5.00;0.70;;;17.80;99.90;;;;;;5075370;28;20393;-75
2022/07/22 01:23:42;;;;;;;6.47;0.80;;;17.80;99.90;;;;;;5076547;28;20049;-76
2022/07/22 01:26:09;;;;;;;3.95;0.82;;;17.90;99.90;;;;;;5075369;28;20032;-76
2022/07/22 01:28:37;;;;;;;4.05;0.70;;;17.80;99.90;;;;;;5075104;28;20109;-75
2022/07/22 01:31:05;;;;;;;5.20;0.80;;;17.60;99.90;;;;;;5074917;28;20060;-76
2022/07/22 01:33:33;;;;;;;6.80;0.80;;;17.50;99.90;;;;;;5077273;28;20434;-76
2022/07/22 01:36:01;;;;;;;4.68;0.90;;;17.50;99.90;;;;;;5075089;28;20016;-74
2022/07/22 01:38:28;;;;;;;6.03;0.80;;;17.60;99.90;;;;;;5058480;28;20180;-75
2022/07/22 01:40:55;;;;;;;8.45;1.25;;;17.70;99.90;;;;;;5074777;28;20040;-75
2022/07/22 01:43:23;;;;;;;5.70;0.90;;;17.80;99.90;;;;;;5074828;28;20036;-75
2022/07/22 01:45:53;;;;;;;6.30;0.82;;;17.70;99.90;;;;;;5075037;28;20502;-74
2022/07/22 01:48:21;;;;;;;4.03;1.05;;;17.60;99.90;;;;;;5075948;28;20053;-73
2022/07/22 01:50:49;;;;;;;4.82;1.10;;;17.70;99.90;;;;;;5076405;28;20472;-75
2022/07/22 01:53:16;;;;;;;9.05;1.08;;;17.80;99.90;;;;;;5076614;28;20095;-75
2022/07/22 01:55:44;;;;;;;8.70;1.00;;;18.00;99.90;;;;;;5075003;28;20115;-75
2022/07/22 01:58:12;;;;;;;5.47;0.90;;;18.20;99.90;;;;;;5074766;28;20020;-75
2022/07/22 02:00:39;;;;;;;5.70;1.05;;;18.20;99.90;;;;;;5076148;28;20021;-74
2022/07/22 02:03:07;;;;;;;5.93;1.10;;;17.90;99.90;;;;;;5074468;28;20071;-75
2022/07/22 02:05:35;;;;;;;5.63;1.00;;;17.60;99.90;;;;;;5075993;28;20048;-74
2022/07/22 02:08:08;;;;;;;5.10;0.90;;;17.40;99.90;;;;;;5074870;28;20059;-74
2022/07/22 02:10:36;;;;;;;5.60;0.85;;;17.60;99.90;;;;;;5075847;28;20472;-75
2022/07/22 02:13:04;;;;;;;8.93;1.63;;;17.60;99.90;;;;;;5075681;28;20096;-75
2022/07/22 02:15:32;;;;;;;4.40;1.17;;;17.60;99.90;;;;;;5074491;28;20110;-74
2022/07/22 02:17:59;;;;;;;8.57;0.98;;;17.30;99.90;;;;;;5074624;28;20434;-74
2022/07/22 02:20:27;;;;;;;8.80;1.35;;;17.20;99.90;;;;;;5075950;28;20123;-73
2022/07/22 02:22:54;;;;;;;6.43;0.90;;;17.40;99.90;;;;;;5074384;28;20039;-75
2022/07/22 02:25:22;;;;;;;4.93;1.13;;;17.60;99.90;;;;;;5075513;28;20027;-73
2022/07/22 02:27:49;;;;;;;5.07;0.65;;;17.40;99.90;;;;;;5075394;28;20039;-73
2022/07/22 02:30:16;;;;;;;5.90;0.80;;;17.20;99.90;;;;;;5073701;28;20074;-74
2022/07/22 02:32:44;;;;;;;5.25;1.05;;;17.10;99.90;;;;;;5075260;28;20082;-74
2022/07/22 02:35:11;;;;;;;5.57;1.00;;;17.10;99.90;;;;;;5075204;28;20028;-74
2022/07/22 02:37:39;;;;;;;5.15;0.88;;;17.10;99.90;;;;;;5073856;28;20063;-75
2022/07/22 02:40:08;;;;;;;5.72;0.82;;;17.20;99.90;;;;;;5073739;28;20024;-74
2022/07/22 02:42:35;;;;;;;4.50;1.02;;;17.50;99.90;;;;;;5073753;28;20025;-75
2022/07/22 02:45:04;;;;;;;3.85;0.88;;;17.50;99.90;;;;;;5073712;28;20107;-74
2022/07/22 02:47:31;;;;;;;3.97;0.60;;;17.40;99.90;;;;;;5074903;28;20100;-74
2022/07/22 02:49:59;;;;;;;3.97;0.60;;;17.50;99.90;;;;;;5073408;28;20036;-73
2022/07/22 02:52:26;;;;;;;3.30;0.40;;;17.20;99.90;;;;;;5073226;28;20028;-74
2022/07/22 02:54:53;;;;;;;6.43;0.82;;;17.20;99.90;;;;;;5074254;28;20020;-74
2022/07/22 02:57:21;;;;;;;3.65;0.40;;;17.20;99.90;;;;;;5073549;28;20024;-74
2022/07/22 02:59:48;;;;;;;4.43;0.40;;;17.20;99.90;;;;;;5074700;28;20021;-73
2022/07/22 03:02:15;;;;;;;4.18;0.50;;;17.30;99.90;;;;;;5073358;28;20024;-73
2022/07/22 03:04:43;;;;;;;4.10;0.57;;;17.70;99.90;;;;;;5074723;28;20025;-73
2022/07/22 03:07:10;;;;;;;6.88;0.90;;;17.70;99.90;;;;;;5073437;28;20033;-73
2022/07/22 03:09:38;;;;;;;7.53;1.13;;;17.60;99.90;;;;;;5074568;28;20027;-73
2022/07/22 03:12:05;;;;;;;4.55;0.65;;;17.40;99.90;;;;;;5056144;28;20025;-73
2022/07/22 03:14:33;;;;;;;4.60;0.57;;;17.20;99.90;;;;;;5073697;28;20454;-73
2022/07/22 03:17:00;;;;;;;5.55;0.88;;;16.80;99.90;;;;;;5072131;28;20021;-73
2022/07/22 03:19:27;;;;;;;5.90;0.90;;;16.40;99.90;;;;;;5073653;28;20388;-74
2022/07/22 03:21:55;;;;;;;3.45;0.60;;;16.30;99.90;;;;;;5071984;28;20025;-74
2022/07/22 03:24:22;;;;;;;6.13;1.05;;;16.20;99.90;;;;;;5072239;28;20388;-75
2022/07/22 03:26:49;;;;;;;5.85;1.02;;;16.40;99.90;;;;;;5072624;28;20484;-75
2022/07/22 03:29:17;;;;;;;4.28;0.63;;;16.30;99.90;;;;;;5072882;28;20056;-75
2022/07/22 03:31:44;;;;;;;2.33;0.50;;;16.20;99.90;;;;;;5074163;28;20112;-74
2022/07/22 03:34:12;;;;;;;4.45;0.80;;;16.10;99.90;;;;;;5074436;28;20077;-78
2022/07/22 03:36:39;;;;;;;5.07;0.95;;;16.20;99.90;;;;;;5056192;28;20044;-74
2022/07/22 03:42:29;;;;;;;5.50;0.85;;;16.50;99.90;;;;;;5074818;28;20034;-75
2022/07/22 03:44:56;;;;;;;9.57;1.40;;;16.60;99.90;;;;;;5074625;28;20035;-75
2022/07/22 03:47:24;;;;;;;9.63;1.30;;;16.70;99.90;;;;;;5073051;28;20096;-75
2022/07/22 03:49:52;;;;;;;5.03;0.70;;;16.60;99.90;;;;;;5073260;28;20123;-76
2022/07/22 03:52:19;;;;;;;5.38;0.90;;;16.60;99.90;;;;;;5073933;28;20434;-75
2022/07/22 03:54:47;;;;;;;7.35;1.15;;;16.60;99.90;;;;;;5072829;28;20073;-76
2022/07/22 03:57:14;;;;;;;9.02;1.52;;;16.70;99.90;;;;;;5072748;28;20077;-75
2022/07/22 03:59:41;;;;;;;9.50;1.20;;;16.70;99.90;;;;;;5072813;28;20021;-76
2022/07/22 04:02:09;;;;;;;6.63;0.95;;;16.70;99.90;;;;;;5072765;28;20028;-76
2022/07/22 04:04:36;;;;;;;7.15;1.17;;;16.50;99.90;;;;;;5072301;28;20035;-75
2022/07/22 04:07:04;;;;;;;7.05;1.02;;;16.40;99.90;;;;;;5073216;28;20112;-75
2022/07/22 04:09:31;;;;;;;7.60;1.00;;;16.20;99.90;;;;;;5074073;28;20119;-75
2022/07/22 04:11:58;;;;;;;13.85;1.42;;;15.60;99.90;;;;;;5072287;28;20033;-75
2022/07/22 04:14:26;;;;;;;9.68;1.52;;;15.00;99.90;;;;;;5072421;28;20119;-75
2022/07/22 04:16:53;;;;;;;7.60;1.40;;;14.80;99.90;;;;;;5073315;28;20166;-74
2022/07/22 04:19:20;;;;;;;13.95;2.13;;;14.60;99.90;;;;;;5073359;28;20051;-75
2022/07/22 04:21:48;;;;;;;7.55;1.30;;;14.50;99.90;;;;;;5072110;28;20036;-75
2022/07/22 04:24:15;;;;;;;10.05;1.30;;;14.40;99.90;;;;;;5072609;28;20021;-76
2022/07/22 04:26:42;;;;;;;12.60;1.67;;;14.30;99.90;;;;;;5072142;28;20400;-75
2022/07/22 04:29:10;;;;;;;7.50;1.30;;;14.30;99.90;;;;;;5072015;28;20028;-75
2022/07/22 04:31:37;;;;;;;11.25;1.38;;;14.20;99.90;;;;;;5073471;28;20103;-74
2022/07/22 04:34:04;;;;;;;8.75;1.63;;;14.20;99.90;;;;;;5071739;28;20116;-74
2022/07/22 04:36:32;;;;;;;8.05;1.35;;;14.10;99.90;;;;;;5073157;28;20031;-73
2022/07/22 04:38:59;;;;;;;8.93;1.77;;;14.00;99.90;;;;;;5071613;28;20438;-74
2022/07/22 04:41:27;;;;;;;6.50;1.33;;;14.00;99.90;;;;;;5071662;28;20039;-73
2022/07/22 04:43:54;;;;;;;12.70;1.60;;;13.90;99.90;;;;;;5072936;28;20052;-74
2022/07/22 04:46:22;;;;;;;10.45;1.38;;;13.90;99.90;;;;;;5071992;28;20059;-73
2022/07/22 04:48:49;;;;;;;10.43;1.40;;;14.00;99.90;;;;;;5072754;28;20412;-74
2022/07/22 04:51:16;;;;;;;5.93;1.15;;;14.10;99.90;;;;;;5072867;28;20048;-73
2022/07/22 04:53:44;;;;;;;10.02;1.20;;;14.10;99.90;;;;;;5073128;28;20044;-74
2022/07/22 04:56:11;;;;;;;8.70;1.08;;;14.10;99.90;;;;;;5073022;28;20036;-74
2022/07/22 04:58:38;;;;;;;12.57;1.20;;;14.10;99.90;;;;;;5071196;28;20028;-73
2022/07/22 05:01:06;;;;;;;7.68;1.80;;;14.10;99.90;;;;;;5072740;28;20031;-73
2022/07/22 05:03:34;;;;;;;7.50;1.20;;;14.20;99.90;;;;;;5072700;28;20021;-74
2022/07/22 05:06:01;;;;;;;5.82;1.00;;;14.30;99.90;;;;;;5072829;28;20024;-76
2022/07/22 05:08:29;;;;;;;7.65;0.90;;;14.20;99.90;;;;;;5073379;28;20028;-77
2022/07/22 05:10:56;;;;;;;6.72;1.23;;;14.30;99.90;;;;;;5071759;28;20094;-77
2022/07/22 05:13:24;;;;;;;7.85;1.00;;;14.40;99.90;;;;;;5072767;28;20108;-76
2022/07/22 05:15:51;;;;;;;8.52;0.98;;;14.40;99.90;;;;;;5072760;28;20524;-76
2022/07/22 05:18:19;;;;;;;9.63;1.30;;;14.40;99.90;;;;;;5075854;28;20035;-73
2022/07/22 05:20:46;;;;;;;6.32;1.00;;;14.30;99.90;;;;;;5076399;28;20024;-74
2022/07/22 05:23:14;;;;;;;8.13;1.30;;;14.30;99.90;;;;;;5076357;28;20023;-75
2022/07/22 05:25:41;;;;;;;9.35;1.48;;;14.20;99.90;;;;;;5074574;28;20074;-74
2022/07/22 05:28:08;;;;;;;8.18;0.90;;;14.20;99.90;;;;;;5076068;28;20102;-76
2022/07/22 05:30:35;;;;;;;8.73;1.23;;;14.20;99.90;;;;;;5076830;28;20017;-76
2022/07/22 05:33:06;;;;;;;8.02;1.02;;;14.10;99.90;;;;;;5076180;28;20028;-76
2022/07/22 05:35:33;;;;;;;7.82;1.17;;;14.10;99.90;;;;;;5076167;28;20028;-77
2022/07/22 05:38:01;;;;;;;9.25;1.80;;;14.10;99.90;;;;;;5075118;28;20031;-75
2022/07/22 05:40:28;;;;;;;16.35;2.42;;;13.90;99.90;;;;;;5074642;28;20089;-75
2022/07/22 05:42:55;;;;;;;11.18;1.92;;;13.90;99.90;;;;;;5075990;28;20024;-76
2022/07/22 05:45:23;;;;;;;11.00;2.47;;;13.90;99.90;;;;;;5074763;28;20051;-76
2022/07/22 05:47:50;;;;;;;15.60;2.28;;;13.90;99.90;;;;;;5075647;28;20040;-74
2022/07/22 05:50:18;;;;;;;10.70;2.03;;;13.90;99.90;;;;;;5074561;28;20029;-75
2022/07/22 05:52:45;;;;;;;14.38;2.17;;;14.00;99.90;;;;;;5074549;28;20048;-76
2022/07/22 05:55:12;;;;;;;12.07;1.85;;;14.00;99.90;;;;;;5076088;28;20025;-76
2022/07/22 05:57:40;;;;;;;14.00;1.75;;;14.00;99.90;;;;;;5076092;28;20059;-76
2022/07/22 06:00:08;;;;;;;11.07;1.95;;;14.00;99.90;;;;;;5076002;28;20024;-76
2022/07/22 06:02:35;;;;;;;15.98;1.75;;;14.00;99.90;;;;;;5075922;28;20031;-76
2022/07/22 06:05:03;;;;;;;13.32;1.80;;;14.00;99.90;;;;;;5074349;28;20024;-76
2022/07/22 06:07:31;;;;;;;10.52;1.63;;;13.90;99.90;;;;;;5075625;28;20048;-75
2022/07/22 06:09:58;;;;;;;13.85;1.92;;;13.90;99.90;;;;;;5074206;28;20039;-74
2022/07/22 06:12:26;;;;;;;9.45;1.30;;;13.90;99.90;;;;;;5075441;28;20515;-76
2022/07/22 06:14:53;;;;;;;9.15;1.85;;;13.80;99.90;;;;;;5074110;28;20050;-75
2022/07/22 06:17:20;;;;;;;10.70;1.85;;;13.80;99.90;;;;;;5074041;28;20020;-74
2022/07/22 06:19:48;;;;;;;9.77;1.88;;;13.80;99.90;;;;;;5073965;28;20020;-76
2022/07/22 06:22:17;;;;;;;7.38;1.67;;;13.80;99.90;;;;;;5074017;28;20063;-76
2022/07/22 06:24:45;;;;;;;10.65;1.60;;;13.80;99.90;;;;;;5075338;28;20052;-73
2022/07/22 06:27:13;;;;;;;12.75;1.42;;;13.80;99.90;;;;;;5074042;28;20063;-75
2022/07/22 06:29:40;;;;;;;14.35;2.30;;;13.70;99.90;;;;;;5073226;28;20021;-76
2022/07/22 06:32:09;;;;;;;8.88;1.88;;;13.70;99.90;;;;;;5075215;28;20049;-77
2022/07/22 06:34:36;;;;;;;7.90;1.20;;;13.60;99.90;;;;;;5073810;28;20063;-74
2022/07/22 06:37:04;;;;;;;8.48;1.05;;;13.60;99.90;;;;;;5073821;28;20481;-75
2022/07/22 06:39:31;;;;;;;10.40;2.05;;;13.60;99.90;;;;;;5073642;28;20021;-75
2022/07/22 06:41:58;;;;;;;7.93;1.30;;;13.60;99.90;;;;;;5075497;28;20075;-77
2022/07/22 06:44:26;;;;;;;8.25;1.42;;;13.60;99.90;;;;;;5075232;28;20024;-76
2022/07/22 06:46:53;;;;;;;8.73;1.13;;;13.60;99.90;;;;;;5074177;28;20025;-74
2022/07/22 06:49:20;;;;;;;11.85;1.83;;;13.50;99.90;;;;;;5073545;28;20382;-74
2022/07/22 06:51:48;;;;;;;5.30;0.98;;;13.60;99.90;;;;;;5073440;28;20024;-77
2022/07/22 06:54:15;;;;;;;4.88;0.98;;;13.50;99.90;;;;;;5074016;28;20385;-77
2022/07/22 06:56:42;;;;;;;12.07;1.35;;;13.50;99.90;;;;;;5073494;28;20025;-76
2022/07/22 06:59:10;;;;;;;10.82;1.25;;;13.50;99.90;;;;;;5074847;28;20016;-76
2022/07/22 07:01:37;;;;;;;6.75;1.17;;;13.50;99.90;;;;;;5073684;28;20115;-76
2022/07/22 07:04:05;;;;;;;6.45;1.27;;;13.40;99.90;;;;;;5073632;28;20048;-76
2022/07/22 07:06:32;;;;;;;8.10;1.23;;;13.30;99.90;;;;;;5074756;28;20481;-74
2022/07/22 07:08:59;;;;;;;7.95;1.40;;;13.30;99.90;;;;;;5073453;28;20059;-75
2022/07/22 07:11:27;;;;;;;4.03;0.90;;;13.30;99.90;;;;;;5073697;28;20486;-75
2022/07/22 07:13:54;;;;;;;6.95;1.15;;;13.40;99.90;;;;;;5073634;28;20027;-77
2022/07/22 07:16:21;;;;;;;8.32;1.52;;;13.30;99.90;;;;;;5073128;28;20023;-75
2022/07/22 07:18:49;;;;;;;7.13;1.42;;;13.50;99.90;;;;;;5074547;28;20397;-76
2022/07/22 07:21:16;;;;;;;12.45;1.58;;;13.60;99.90;;;;;;5072876;28;20029;-77
2022/07/22 07:23:43;;;;;;;12.13;1.85;;;13.70;99.90;;;;;;5074341;28;20021;-76
2022/07/22 07:26:11;;;;;;;12.25;1.73;;;13.70;99.90;;;;;;5074358;28;20111;-77
2022/07/22 07:28:38;;;;;;;7.85;1.80;;;13.70;99.90;;;;;;5072686;28;20040;-77
2022/07/22 07:31:06;;;;;;;10.10;1.38;;;13.70;99.90;;;;;;5073527;28;20387;-77
2022/07/22 07:33:34;;;;;;;9.02;1.10;;;13.60;99.90;;;;;;5074582;28;20472;-78
2022/07/22 07:36:02;;;;;;;8.82;1.38;;;13.60;99.90;;;;;;5074675;28;20017;-79
2022/07/22 07:38:29;;;;;;;6.95;1.40;;;13.60;99.90;;;;;;5072908;28;20020;-78
2022/07/22 07:40:57;;;;;;;10.73;1.77;;;13.60;99.90;;;;;;5073204;28;20050;-78
2022/07/22 07:43:24;;;;;;;6.22;1.20;;;13.60;99.90;;;;;;5073464;28;20484;-78
2022/07/22 07:45:52;;;;;;;12.57;1.65;;;13.60;99.90;;;;;;5073000;28;20025;-80
2022/07/22 07:48:19;;;;;;;10.45;1.83;;;13.60;99.90;;;;;;5073745;28;20044;-77
2022/07/22 07:50:47;;;;;;;11.30;1.98;;;13.60;99.90;;;;;;5075191;28;20384;-77
2022/07/22 07:53:16;;;;;;;5.68;1.20;;;13.60;99.90;;;;;;5073288;28;20029;-80
2022/07/22 07:55:43;;;;;;;9.55;1.38;;;13.60;99.90;;;;;;5073985;28;20500;-79
2022/07/22 07:58:11;;;;;;;10.50;2.25;;;13.50;99.90;;;;;;5074044;28;20024;-81
2022/07/22 08:00:41;;;;;;;7.97;1.55;;;13.50;99.90;;;;;;5072921;28;20040;-78
2022/07/22 08:03:08;;;;;;;9.15;2.72;;;13.60;99.90;;;;;;5074326;28;20044;-78
2022/07/22 08:05:36;;;;;;;10.50;2.20;;;13.60;99.90;;;;;;5072578;28;20036;-78
2022/07/22 08:08:04;;;;;;;13.13;2.15;;;13.60;99.90;;;;;;5072351;28;20024;-77
2022/07/22 08:10:31;;;;;;;6.30;1.25;;;13.50;99.90;;;;;;5073191;28;20059;-78
2022/07/22 08:12:59;;;;;;;9.07;1.55;;;13.40;99.90;;;;;;5072026;28;20046;-78
2022/07/22 08:15:27;;;;;;;6.97;1.38;;;13.30;99.90;;;;;;5072623;28;20488;-79
2022/07/22 08:17:56;;;;;;;8.32;1.48;;;13.30;99.90;;;;;;5074769;28;20444;-81
2022/07/22 08:20:26;;;;;;;8.82;1.45;;;13.20;99.90;;;;;;5074887;28;20029;-80
2022/07/22 08:22:54;;;;;;;5.97;1.65;;;13.30;99.90;;;;;;5056555;28;20039;-79
2022/07/22 08:25:23;;;;;;;12.20;1.92;;;13.20;99.90;;;;;;5071881;28;20025;-78
2022/07/22 08:27:50;;;;;;;6.28;1.98;;;13.30;99.90;;;;;;5055145;28;20478;-78
2022/07/22 08:30:19;;;;;;;11.20;2.85;;;13.30;99.90;;;;;;5071657;28;20120;-78
2022/07/22 08:32:47;;;;;;;10.57;3.58;;;13.40;99.90;;;;;;5071618;28;20063;-79
2022/07/22 08:35:15;;;;;;;13.80;3.65;;;13.40;99.90;;;;;;5073457;28;20027;-80
2022/07/22 08:37:45;;;;;;;9.95;2.78;;;13.50;99.90;;;;;;5073267;28;20027;-78
2022/07/22 08:40:13;;;;;;;9.10;1.83;;;13.50;99.90;;;;;;5071628;28;20024;-80
2022/07/22 08:42:42;;;;;;;8.75;1.50;;;13.50;99.90;;;;;;5073364;28;20031;-80
2022/07/22 08:45:11;;;;;;;6.47;1.38;;;13.60;99.90;;;;;;5071854;28;20065;-80
2022/07/22 08:47:38;;;;;;;7.15;1.25;;;13.50;99.90;;;;;;5055318;28;20119;-78
2022/07/22 08:50:06;;;;;;;8.57;1.45;;;13.50;99.90;;;;;;5072094;28;20032;-81
2022/07/22 08:52:34;;;;;;;6.15;1.20;;;13.50;99.90;;;;;;5074937;28;20025;-82
2022/07/22 08:55:08;;;;;;;8.18;1.17;;;13.50;99.90;;;;;;5077404;28;20103;-81
2022/07/22 08:57:37;;;;;;;6.63;1.67;;;13.50;99.90;;;;;;5076137;28;20064;-81
2022/07/22 09:00:13;;;;;;;8.15;2.08;;;13.50;99.90;;;;;;5077009;28;20461;-79
2022/07/22 09:02:42;;;;;;;10.35;2.78;;;13.50;99.90;;;;;;5076119;28;20033;-82
2022/07/22 09:05:16;;;;;;;9.10;2.17;;;13.50;99.90;;;;;;5076946;28;20452;-80
2022/07/22 09:07:46;;;;;;;7.20;2.28;;;13.50;99.90;;;;;;5075551;28;20113;-80
2022/07/22 09:10:17;;;;;;;7.82;2.03;;;13.60;99.90;;;;;;5076670;28;20023;-78
2022/07/22 09:12:59;;;;;;;7.60;2.40;;;13.60;99.90;;;;;;5075250;28;20029;-78
2022/07/22 09:15:39;;;;;;;6.90;1.85;;;13.60;99.90;;;;;;5076994;28;20504;-78
2022/07/22 09:18:07;;;;;;;9.03;1.60;;;13.60;99.90;;;;;;5075818;28;20078;-80
2022/07/22 09:20:36;;;;;;;8.32;2.00;;;13.60;99.90;;;;;;5076611;28;20336;-79
2022/07/22 09:23:11;;;;;;;10.25;1.88;;;13.60;99.90;;;;;;5076968;28;20024;-79
2022/07/22 09:25:40;;;;;;;5.38;1.20;;;13.70;99.90;;;;;;5077396;28;20029;-79
2022/07/22 09:28:07;;;;;;;5.90;1.45;;;13.70;99.90;;;;;;5077210;28;20020;-80
2022/07/22 09:30:36;;;;;;;7.45;1.95;;;13.70;99.90;;;;;;5078135;28;20024;-78
2022/07/22 09:33:08;;;;;;;5.80;1.38;;;13.70;99.90;;;;;;5076923;28;20047;-78
2022/07/22 09:35:35;;;;;;;7.88;2.40;;;13.60;99.90;;;;;;5076584;28;20025;-80
2022/07/22 09:38:05;;;;;;;9.57;2.10;;;13.60;99.90;;;;;;5077500;28;20070;-79
2022/07/22 09:40:38;;;;;;;5.35;2.05;;;13.60;99.90;;;;;;5077229;28;20021;-79
2022/07/22 09:43:11;;;;;;;5.18;2.08;;;13.60;99.90;;;;;;5078343;28;20039;-79
2022/07/22 09:45:49;;;;;;;6.22;2.20;;;13.60;99.90;;;;;;5075406;28;20039;-79
2022/07/22 09:48:21;;;;;;;7.65;1.70;;;13.60;99.90;;;;;;5074400;28;20570;-77
2022/07/22 09:50:49;;;;;;;10.57;2.28;;;13.60;99.90;;;;;;5075850;28;20431;-78
2022/07/22 09:53:20;;;;;;;4.82;0.90;;;13.50;99.90;;;;;;5075853;28;20103;-77
2022/07/22 09:55:47;;;;;;;;;;;13.40;99.90;;;;;;5076917;28;20418;-78
2022/07/22 09:58:14;;;;;;;7.75;1.40;;;13.40;99.90;;;;;;5077097;28;20284;-78
2022/07/22 10:00:43;;;;;;;7.07;1.13;;;13.30;99.90;;;;;;5074767;28;20483;-78
2022/07/22 10:03:31;;;;;;;5.47;0.80;;;13.30;99.90;;;;;;5074619;28;20033;-78
2022/07/22 10:05:59;;;;;;;4.35;1.00;;;13.30;99.90;;;;;;5075693;28;20105;-77
2022/07/22 10:08:30;;;;;;;7.88;1.25;;;13.20;99.90;;;;;;5074068;28;20384;-76
2022/07/22 10:11:02;;;;;;;4.03;1.33;;;13.20;99.90;;;;;;5075616;28;20480;-77
2022/07/22 10:13:31;;;;;;;7.57;1.55;;;13.10;99.90;;;;;;5075493;28;20507;-78
2022/07/22 10:15:59;;;;;;;18.15;2.85;;;13.10;99.90;;;;;;5074649;28;20031;-79
2022/07/22 10:18:30;;;;;;;7.82;1.35;;;13.00;99.90;;;;;;5057537;28;20573;-77
2022/07/22 10:21:10;;;;;;;7.38;1.25;;;13.00;99.90;;;;;;5075503;28;20044;-77
2022/07/22 10:23:57;;;;;;;9.10;1.48;;;13.00;99.90;;;;;;5073775;28;20108;-77
2022/07/22 10:26:55;;;;;;;6.90;1.70;;;13.00;99.90;;;;;;5073580;28;20541;-78
2022/07/22 10:29:31;;;;;;;7.90;1.20;;;13.00;99.90;;;;;;5075200;28;20127;-79
2022/07/22 10:32:16;;;;;;;7.53;1.23;;;13.00;99.90;;;;;;5074066;28;20021;-79
2022/07/22 10:35:01;;;;;;;6.88;1.08;;;12.90;99.90;;;;;;5075859;28;20042;-79
2022/07/22 10:37:43;;;;;;;6.03;1.00;;;12.90;99.90;;;;;;5079720;28;20032;-80
2022/07/22 10:40:24;;;;;;;5.85;0.90;;;12.90;99.90;;;;;;5076299;28;20021;-79
2022/07/22 10:43:00;;;;;;;5.25;1.10;;;12.80;99.90;;;;;;5075443;28;20059;-79
2022/07/22 10:45:54;;;;;;;5.75;1.33;;;12.70;99.90;;;;;;5075354;28;20028;-79
2022/07/22 10:48:38;;;;;;;6.22;0.98;;;12.70;99.90;;;;;;5073112;28;20052;-79
2022/07/22 10:51:25;;;;;;;6.20;1.05;;;12.60;99.90;;;;;;5074954;28;20092;-78
2022/07/22 10:54:02;;;;;;;4.75;1.05;;;12.50;99.90;;;;;;5073512;28;20032;-79
2022/07/22 10:56:35;;;;;;;8.82;1.30;;;12.40;99.90;;;;;;5073559;28;20077;-79
2022/07/22 10:59:21;;;;;;;6.07;1.23;;;12.40;99.90;;;;;;5075000;28;20021;-79
2022/07/22 11:01:51;;;;;;;5.20;1.70;;;12.30;99.90;;;;;;5073432;28;20212;-79
2022/07/22 11:04:27;;;;;;;9.02;3.70;;;12.30;99.90;;;;;;5074487;28;20108;-79
2022/07/22 11:06:56;;;;;;;6.57;2.20;;;12.30;99.90;;;;;;5073230;28;20519;-79
2022/07/22 11:09:33;;;;;;;6.85;1.60;;;12.30;99.90;;;;;;5073359;28;20021;-79
2022/07/22 11:12:00;;;;;;;6.88;1.38;;;12.30;99.90;;;;;;5074595;28;20016;-79
2022/07/22 11:14:36;;;;;;;7.10;1.50;;;12.30;99.90;;;;;;5072869;28;20016;-79
2022/07/22 11:17:13;;;;;;;7.75;2.22;;;12.30;99.90;;;;;;5074448;28;20025;-79
2022/07/22 11:19:41;;;;;;;11.27;2.55;;;12.40;99.90;;;;;;5074609;28;20020;-79
2022/07/22 11:22:15;;;;;;;9.63;3.25;;;12.50;99.90;;;;;;5075033;28;20021;-79
2022/07/22 11:24:48;;;;;;;8.23;2.67;;;12.50;99.90;;;;;;5075199;28;20044;-80
2022/07/22 11:27:57;;;;;;;10.63;3.30;;;12.50;99.90;;;;;;5074539;28;20099;-78
2022/07/22 11:33:46;;;;;;;8.50;3.30;;;12.60;99.90;;;;;;5074826;28;20047;-81
2022/07/22 11:36:50;;;;;;;6.50;2.90;;;12.70;99.90;;;;;;5075402;28;20443;-79
2022/07/22 11:42:28;;;;;;;;;;;12.70;99.90;;;;;;5077307;28;20051;-79
2022/07/22 11:44:56;;;;;;;10.50;2.33;;;12.80;99.90;;;;;;5077592;28;19904;-78
2022/07/22 11:47:23;;;;;;;8.43;2.53;;;12.80;99.90;;;;;;5076071;28;20052;-78
2022/07/22 11:49:51;;;;;;;8.15;2.47;;;12.80;99.90;;;;;;5076873;28;20574;-81
2022/07/22 11:52:22;;;;;;;12.43;3.10;;;12.90;99.90;;;;;;5080080;28;20081;-81
2022/07/22 11:54:52;;;;;;;7.07;2.45;;;12.90;99.90;;;;;;5091182;28;20045;-82
2022/07/22 11:57:19;;;;;;;10.70;2.70;;;12.90;99.90;;;;;;5085961;28;20025;-80
2022/07/22 11:59:47;;;;;;;7.05;2.05;;;12.90;99.90;;;;;;5088836;28;20025;-81
2022/07/22 12:02:14;;;;;;;8.15;1.92;;;12.90;99.90;;;;;;5093051;28;20025;-81
2022/07/22 12:04:44;;;;;;;6.50;2.00;;;12.90;99.90;;;;;;5084577;28;20013;-81
2022/07/22 12:07:13;;;;;;;10.30;2.45;;;12.80;99.90;;;;;;5077454;28;20361;-81
2022/07/22 12:09:42;;;;;;;6.72;1.73;;;12.80;99.90;;;;;;5059567;28;20124;-81
2022/07/22 12:12:10;;;;;;;8.05;2.30;;;12.80;99.90;;;;;;5076592;28;20064;-80
2022/07/22 12:14:44;;;;;;;9.20;1.95;;;12.80;99.90;;;;;;5077147;28;20431;-79
2022/07/22 12:17:12;;;;;;;6.65;2.00;;;12.80;99.90;;;;;;5076554;28;20027;-79
2022/07/22 12:19:40;;;;;;;7.32;2.20;;;12.80;99.90;;;;;;5076509;28;20048;-79
2022/07/22 12:22:13;;;;;;;6.60;1.80;;;12.80;99.90;;;;;;5076038;28;20096;-79
2022/07/22 12:24:43;;;;;;;8.50;2.50;;;12.90;99.90;;;;;;5074980;28;20393;-78
2022/07/22 12:27:16;;;;;;;7.65;2.42;;;12.90;99.90;;;;;;5075211;28;20167;-79
2022/07/22 12:29:46;;;;;;;11.55;2.92;;;13.00;99.90;;;;;;5074796;28;20496;-78
2022/07/22 12:32:24;;;;;;;7.53;3.50;;;13.00;99.90;;;;;;5076098;28;20469;-78
2022/07/22 12:35:06;;;;;;;7.03;3.88;;;13.00;99.90;;;;;;5076677;28;20245;-78
2022/07/22 12:38:05;;;;;;;12.23;4.25;;;13.00;99.90;;;;;;5075144;28;20021;-78
2022/07/22 12:40:32;;;;;;;9.85;3.42;;;13.00;99.90;;;;;;5075391;28;20073;-78
2022/07/22 12:43:12;;;;;;;8.88;3.60;;;13.00;99.90;;;;;;5075770;28;20040;-79
2022/07/22 12:45:41;;;;;;;11.98;3.85;;;13.00;99.90;;;;;;5076264;28;20024;-78
2022/07/22 12:48:10;;;;;;;9.07;3.20;;;12.90;99.90;;;;;;5076961;28;20436;-79
2022/07/22 12:50:55;;;;;;;9.70;3.05;;;12.90;99.90;;;;;;5075034;28;20113;-80
2022/07/22 12:53:24;;;;;;;10.27;3.80;;;12.90;99.90;;;;;;5076402;28;20029;-81
2022/07/22 12:56:02;;;;;;;9.57;3.70;;;12.90;99.90;;;;;;5075340;28;20048;-79
2022/07/22 12:58:36;;;;;;;10.30;3.70;;;12.80;99.90;;;;;;5074346;28;20021;-78
2022/07/22 13:01:04;;;;;;;7.13;3.60;;;12.80;99.90;;;;;;5076181;28;20500;-80
2022/07/22 13:03:32;;;;;;;12.55;3.70;;;12.80;99.90;;;;;;5074764;28;20024;-78
2022/07/22 13:06:03;;;;;;;7.40;2.80;;;12.80;99.90;;;;;;5074933;28;20024;-78
2022/07/22 13:08:31;;;;;;;6.68;1.88;;;12.80;99.90;;;;;;5075041;28;20048;-79